createdAt,value
2019-02-14T00:00:09.349Z,67.15
2019-02-14T00:02:38.648Z,67.34
2019-02-14T00:05:15.881Z,67.55
2019-02-14T00:07:38.930Z,67.54
2019-02-14T00:10:08.343Z,68.26
2019-02-14T00:12:37.676Z,68.20
2019-02-14T00:15:08.222Z,69.08
2019-02-14T00:17:37.507Z,68.74
2019-02-14T00:20:07.648Z,68.94
2019-02-14T00:22:36.904Z,68.34
2019-02-14T00:25:06.994Z,68.94
2019-02-14T00:27:36.348Z,68.95
2019-02-14T00:30:07.001Z,68.92
2019-02-14T00:32:36.265Z,68.74
2019-02-14T00:35:05.787Z,68.78
2019-02-14T00:37:35.065Z,69.49
2019-02-14T00:40:04.529Z,69.06
2019-02-14T00:42:33.812Z,69.16
2019-02-14T00:45:03.105Z,68.81
2019-02-14T00:47:32.365Z,68.77
2019-02-14T00:50:01.658Z,68.49
2019-02-14T00:52:30.937Z,68.47
2019-02-14T00:55:00.287Z,68.37
2019-02-14T00:57:30.564Z,68.75
2019-02-14T00:59:59.835Z,68.63
2019-02-14T01:02:29.116Z,68.30
2019-02-14T01:04:58.368Z,67.64
2019-02-14T01:07:27.638Z,67.45
2019-02-14T01:09:56.887Z,67.41
2019-02-14T01:12:26.173Z,67.81
2019-02-14T01:14:55.468Z,67.98
2019-02-14T01:17:24.902Z,68.24
2019-02-14T01:19:54.157Z,68.98
2019-02-14T01:22:23.418Z,69.50
2019-02-14T01:24:52.683Z,69.86
2019-02-14T01:27:21.923Z,69.93
2019-02-14T01:29:51.210Z,70.09
2019-02-14T01:32:21.809Z,70.16
2019-02-14T01:34:51.057Z,70.59
2019-02-14T01:37:20.359Z,70.09
2019-02-14T01:39:49.615Z,70.93
2019-02-14T01:42:18.892Z,70.77
2019-02-14T01:44:48.152Z,70.20
2019-02-14T01:47:17.434Z,70.14
2019-02-14T01:49:46.687Z,69.86
2019-02-14T01:52:15.960Z,70.22
2019-02-14T01:54:45.274Z,70.40
2019-02-14T01:57:14.530Z,70.66
2019-02-14T01:59:43.793Z,70.37
2019-02-14T02:02:13.044Z,70.75
2019-02-14T02:04:42.328Z,70.54
2019-02-14T02:07:11.580Z,70.07
2019-02-14T02:09:40.841Z,69.97
2019-02-14T02:12:10.112Z,69.80
2019-02-14T02:14:39.367Z,69.31
2019-02-14T02:17:08.651Z,68.88
2019-02-14T02:19:37.905Z,68.68
2019-02-14T02:22:07.498Z,68.49
2019-02-14T02:24:36.759Z,68.32
2019-02-14T02:27:06.111Z,68.69
2019-02-14T02:29:35.390Z,68.91
2019-02-14T02:32:04.664Z,68.69
2019-02-14T02:34:33.952Z,68.42
2019-02-14T02:37:03.266Z,68.82
2019-02-14T02:39:32.547Z,68.60
2019-02-14T02:42:01.816Z,68.53
2019-02-14T02:44:31.075Z,68.71
2019-02-14T02:47:00.347Z,68.79
2019-02-14T02:49:29.608Z,68.87
2019-02-14T02:51:58.884Z,69.66
2019-02-14T02:54:28.137Z,69.09
2019-02-14T02:56:58.367Z,69.03
2019-02-14T02:59:27.643Z,69.48
2019-02-14T03:01:58.105Z,70.34
2019-02-14T03:04:27.395Z,69.88
2019-02-14T03:06:56.649Z,70.07
2019-02-14T03:09:25.921Z,69.64
2019-02-14T03:11:55.208Z,69.55
2019-02-14T03:14:24.451Z,70.18
2019-02-14T03:16:53.731Z,70.15
2019-02-14T03:19:22.972Z,70.75
2019-02-14T03:21:52.244Z,70.23
2019-02-14T03:24:21.478Z,70.06
2019-02-14T03:26:50.753Z,69.99
2019-02-14T03:29:20.027Z,70.07
2019-02-14T03:31:49.285Z,69.73
2019-02-14T03:34:18.579Z,69.85
2019-02-14T03:36:47.821Z,70.38
2019-02-14T03:39:17.125Z,70.50
2019-02-14T03:41:46.384Z,71.18
2019-02-14T03:44:15.652Z,70.85
2019-02-14T03:46:44.937Z,71.16
2019-02-14T03:49:14.197Z,70.95
2019-02-14T03:51:43.474Z,70.02
2019-02-14T03:54:12.728Z,70.05
2019-02-14T03:56:41.993Z,70.20
2019-02-14T03:59:11.235Z,70.34
2019-02-14T04:01:40.508Z,70.72
2019-02-14T04:04:09.775Z,71.06
2019-02-14T04:06:39.037Z,70.99
2019-02-14T04:09:08.629Z,70.57
2019-02-14T04:11:37.876Z,70.69
2019-02-14T04:14:07.153Z,71.06
2019-02-14T04:16:36.437Z,70.90
2019-02-14T04:19:05.720Z,70.47
2019-02-14T04:21:34.969Z,70.02
2019-02-14T04:24:04.237Z,70.04
2019-02-14T04:26:33.495Z,69.57
2019-02-14T04:29:02.820Z,69.93
2019-02-14T04:31:32.067Z,70.39
2019-02-14T04:34:01.339Z,70.08
2019-02-14T04:36:35.962Z,70.90
2019-02-14T04:39:01.606Z,70.91
2019-02-14T04:41:30.896Z,71.19
2019-02-14T04:44:00.159Z,71.30
2019-02-14T04:46:29.435Z,71.48
2019-02-14T04:48:58.685Z,71.04
2019-02-14T04:51:27.971Z,70.78
2019-02-14T04:53:57.257Z,70.89
2019-02-14T04:56:26.512Z,70.82
2019-02-14T04:58:55.803Z,71.05
2019-02-14T05:01:25.057Z,71.04
2019-02-14T05:03:54.327Z,70.85
2019-02-14T05:06:23.580Z,70.98
2019-02-14T05:08:52.869Z,70.69
2019-02-14T05:11:22.119Z,70.78
2019-02-14T05:13:51.386Z,70.63
2019-02-14T05:16:20.652Z,71.17
2019-02-14T05:18:49.912Z,71.75
2019-02-14T05:21:19.201Z,72.00
2019-02-14T05:23:48.449Z,72.28
2019-02-14T05:26:17.747Z,71.98
2019-02-14T05:28:47.005Z,71.72
2019-02-14T05:31:16.272Z,72.06
2019-02-14T05:33:45.557Z,71.98
2019-02-14T05:36:14.842Z,71.24
2019-02-14T05:38:44.125Z,71.57
2019-02-14T05:41:13.400Z,71.45
2019-02-14T05:43:42.716Z,71.08
2019-02-14T05:46:11.968Z,70.90
2019-02-14T05:48:41.223Z,70.98
2019-02-14T05:51:10.513Z,71.13
2019-02-14T05:53:39.762Z,71.02
2019-02-14T05:56:10.049Z,70.67
2019-02-14T05:58:39.305Z,71.27
2019-02-14T06:01:10.256Z,71.69
2019-02-14T06:03:39.898Z,71.48
2019-02-14T06:06:10.968Z,71.78
2019-02-14T06:08:40.801Z,71.55
2019-02-14T06:11:11.506Z,71.68
2019-02-14T06:13:41.203Z,71.51
2019-02-14T06:16:31.143Z,71.76
2019-02-14T06:19:00.675Z,71.92
2019-02-14T06:21:34.355Z,71.12
2019-02-14T06:24:03.941Z,70.60
2019-02-14T06:26:33.774Z,70.67
2019-02-14T06:29:03.150Z,69.96
2019-02-14T06:31:32.626Z,69.35
2019-02-14T06:34:02.194Z,68.34
2019-02-14T06:36:32.258Z,68.76
2019-02-14T06:39:04.547Z,68.99
2019-02-14T06:41:34.053Z,68.83
2019-02-14T06:44:03.551Z,68.63
2019-02-14T06:46:34.535Z,68.91
2019-02-14T06:49:04.169Z,69.12
2019-02-14T06:51:33.819Z,69.74
2019-02-14T06:54:03.248Z,69.03
2019-02-14T06:56:32.504Z,69.02
2019-02-14T06:59:01.782Z,68.72
2019-02-14T07:01:31.049Z,68.68
2019-02-14T07:04:00.392Z,68.80
2019-02-14T07:06:29.645Z,69.05
2019-02-14T07:08:58.954Z,68.85
2019-02-14T07:11:29.720Z,68.22
2019-02-14T07:13:58.990Z,68.43
2019-02-14T07:16:29.719Z,68.11
2019-02-14T07:18:58.981Z,67.92
2019-02-14T07:21:28.253Z,67.20
2019-02-14T07:23:57.512Z,67.23
2019-02-14T07:26:26.805Z,67.63
2019-02-14T07:28:56.064Z,66.64
2019-02-14T07:31:25.328Z,66.57
2019-02-14T07:33:54.616Z,66.41
2019-02-14T07:36:24.078Z,67.34
2019-02-14T07:38:53.437Z,66.64
2019-02-14T07:41:22.693Z,67.12
2019-02-14T07:43:52.007Z,67.14
2019-02-14T07:46:22.925Z,67.90
2019-02-14T07:48:52.335Z,67.64
2019-02-14T07:51:21.631Z,67.69
2019-02-14T07:53:52.705Z,66.57
2019-02-14T07:56:21.993Z,66.66
2019-02-14T07:58:51.253Z,66.48
2019-02-14T08:01:20.658Z,65.73
2019-02-14T08:03:49.927Z,64.70
2019-02-14T08:06:19.198Z,65.16
2019-02-14T08:08:48.490Z,65.74
2019-02-14T08:11:17.746Z,65.17
2019-02-14T08:13:47.043Z,66.13
2019-02-14T08:16:16.292Z,65.10
2019-02-14T08:18:45.571Z,65.54
2019-02-14T08:21:14.906Z,65.26
2019-02-14T08:23:44.174Z,64.87
2019-02-14T08:26:13.477Z,64.97
2019-02-14T08:28:42.736Z,64.76
2019-02-14T08:31:12.078Z,63.66
2019-02-14T08:33:41.359Z,62.91
2019-02-14T08:36:10.811Z,62.84
2019-02-14T08:38:40.081Z,61.48
2019-02-14T08:41:09.393Z,61.03
2019-02-14T08:43:38.721Z,60.43
2019-02-14T08:46:07.982Z,60.81
2019-02-14T08:48:37.275Z,61.47
2019-02-14T08:51:07.149Z,61.64
2019-02-14T08:53:36.441Z,61.86
2019-02-14T08:56:05.808Z,61.47
2019-02-14T08:58:35.104Z,60.79
2019-02-14T09:01:04.667Z,61.01
2019-02-14T09:03:33.939Z,61.13
2019-02-14T09:06:03.217Z,60.92
2019-02-14T09:08:32.488Z,59.86
2019-02-14T09:11:01.820Z,59.96
2019-02-14T09:13:31.136Z,60.94
2019-02-14T09:16:00.425Z,60.25
2019-02-14T09:18:29.758Z,59.52
2019-02-14T09:21:00.317Z,59.10
2019-02-14T09:23:29.669Z,58.93
2019-02-14T09:25:58.935Z,59.71
2019-02-14T09:28:36.486Z,59.56
2019-02-14T09:31:07.485Z,60.11
2019-02-14T09:33:36.766Z,59.76
2019-02-14T09:36:06.046Z,60.54
2019-02-14T09:38:36.445Z,59.54
2019-02-14T09:41:05.727Z,59.95
2019-02-14T09:43:35.043Z,59.90
2019-02-14T09:46:04.328Z,59.76
2019-02-14T09:48:33.597Z,60.16
2019-02-14T09:51:02.915Z,59.22
2019-02-14T09:53:32.186Z,58.82
2019-02-14T09:56:01.523Z,56.92
2019-02-14T09:58:30.868Z,57.43
2019-02-14T10:01:01.156Z,58.28
2019-02-14T10:03:30.485Z,57.17
2019-02-14T10:05:59.714Z,58.27
2019-02-14T10:08:29.032Z,57.21
2019-02-14T10:10:58.272Z,55.61
2019-02-14T10:13:27.575Z,54.08
2019-02-14T10:15:56.851Z,54.92
2019-02-14T10:18:26.124Z,54.73
2019-02-14T10:20:55.404Z,53.84
2019-02-14T10:23:24.705Z,54.58
2019-02-14T10:25:53.978Z,54.85
2019-02-14T10:28:23.247Z,54.08
2019-02-14T10:30:52.517Z,53.64
2019-02-14T10:33:21.778Z,53.28
2019-02-14T10:35:51.123Z,53.16
2019-02-14T10:38:22.673Z,52.60
2019-02-14T10:40:51.625Z,52.35
2019-02-14T10:43:22.056Z,51.93
2019-02-14T10:45:51.317Z,52.50
2019-02-14T10:48:20.605Z,52.58
2019-02-14T10:50:49.880Z,52.75
2019-02-14T10:53:19.192Z,51.80
2019-02-14T10:55:48.461Z,50.52
2019-02-14T10:58:17.730Z,49.58
2019-02-14T11:00:47.009Z,47.94
2019-02-14T11:03:16.401Z,48.67
2019-02-14T11:05:45.719Z,49.45
2019-02-14T11:08:15.021Z,46.46
2019-02-14T11:10:44.305Z,45.97
2019-02-14T11:13:13.635Z,46.04
2019-02-14T11:15:42.946Z,44.44
2019-02-14T11:18:12.259Z,45.76
2019-02-14T11:20:41.524Z,45.61
2019-02-14T11:23:10.806Z,45.11
2019-02-14T11:25:40.077Z,45.48
2019-02-14T11:28:09.371Z,43.94
2019-02-14T11:30:38.626Z,45.77
2019-02-14T11:33:07.908Z,45.57
2019-02-14T11:35:37.172Z,46.42
2019-02-14T11:38:06.506Z,45.82
2019-02-14T11:40:35.789Z,45.66
2019-02-14T11:43:05.055Z,45.30
2019-02-14T11:45:34.407Z,44.47
2019-02-14T11:48:03.753Z,43.03
2019-02-14T11:50:33.037Z,41.96
2019-02-14T11:53:02.367Z,40.39
2019-02-14T11:55:31.655Z,37.27
2019-02-14T11:58:00.962Z,38.11
2019-02-14T12:00:30.268Z,39.31
2019-02-14T12:02:59.567Z,39.43
2019-02-14T12:05:28.855Z,39.46
2019-02-14T12:07:58.121Z,39.79
2019-02-14T12:10:27.406Z,37.70
2019-02-14T12:12:56.801Z,35.55
2019-02-14T12:15:26.075Z,33.66
2019-02-14T12:17:55.340Z,33.48
2019-02-14T12:20:24.631Z,32.90
2019-02-14T12:22:53.923Z,32.25
2019-02-14T12:25:23.450Z,33.10
2019-02-14T12:27:52.753Z,30.98
2019-02-14T12:30:22.021Z,29.09
2019-02-14T12:32:51.311Z,29.09
2019-02-14T12:35:20.579Z,30.49
2019-02-14T12:37:49.919Z,30.93
2019-02-14T12:40:19.239Z,31.40
2019-02-14T12:42:48.494Z,30.70
2019-02-14T12:47:50.990Z,33.87
2019-02-14T12:50:20.293Z,34.43
2019-02-14T12:52:49.579Z,36.71
2019-02-14T12:55:18.915Z,36.58
2019-02-14T12:57:48.184Z,37.97
2019-02-14T13:00:19.459Z,38.31
2019-02-14T13:02:49.749Z,38.69
2019-02-14T13:05:19.001Z,37.60
2019-02-14T13:07:48.305Z,36.20
2019-02-14T13:10:17.609Z,34.87
2019-02-14T13:12:46.910Z,31.99
2019-02-14T13:15:18.267Z,30.03
2019-02-14T13:17:47.542Z,31.20
2019-02-14T13:20:16.824Z,29.97
2019-02-14T13:22:46.107Z,30.50
2019-02-14T13:25:15.382Z,31.97
2019-02-14T13:27:44.671Z,31.84
2019-02-14T13:30:16.673Z,33.26
2019-02-14T13:32:45.949Z,32.50
2019-02-14T13:35:15.205Z,33.24
2019-02-14T13:37:44.502Z,33.76
2019-02-14T13:40:13.958Z,33.90
2019-02-14T13:42:43.245Z,33.92
2019-02-14T13:45:14.112Z,35.73
2019-02-14T13:47:43.416Z,34.88
2019-02-14T13:50:15.738Z,35.69
2019-02-14T13:52:44.229Z,35.74
2019-02-14T13:55:13.679Z,36.16
2019-02-14T13:57:42.933Z,35.52
2019-02-14T14:00:16.225Z,35.33
2019-02-14T14:02:45.481Z,34.92
2019-02-14T14:05:14.833Z,34.98
2019-02-14T14:07:44.131Z,35.68
2019-02-14T14:10:13.394Z,35.83
2019-02-14T14:12:42.686Z,36.43
2019-02-14T14:15:11.965Z,36.89
2019-02-14T14:17:41.251Z,36.33
2019-02-14T14:20:10.618Z,36.02
2019-02-14T14:22:39.894Z,36.21
2019-02-14T14:25:09.393Z,36.58
2019-02-14T14:27:40.596Z,36.45
2019-02-14T14:30:10.365Z,36.23
2019-02-14T14:32:39.647Z,35.54
2019-02-14T14:35:10.919Z,35.56
2019-02-14T14:37:40.583Z,34.97
2019-02-14T14:40:11.008Z,35.13
2019-02-14T14:43:08.090Z,35.26
2019-02-14T14:45:56.459Z,35.18
2019-02-14T14:48:28.172Z,35.67
2019-02-14T14:50:57.438Z,34.79
2019-02-14T14:53:26.713Z,34.65
2019-02-14T14:55:55.986Z,35.38
2019-02-14T14:58:25.296Z,34.29
2019-02-14T15:00:54.551Z,34.97
2019-02-14T15:03:23.821Z,34.43
2019-02-14T15:05:53.335Z,35.01
2019-02-14T15:08:22.684Z,34.08
2019-02-14T15:10:51.960Z,34.83
2019-02-14T15:13:21.248Z,35.68
2019-02-14T15:15:50.500Z,35.34
2019-02-14T15:18:19.751Z,35.02
2019-02-14T15:20:49.029Z,35.02
2019-02-14T15:23:18.299Z,35.18
2019-02-14T15:25:47.547Z,35.59
2019-02-14T15:28:16.828Z,35.14
2019-02-14T15:30:46.115Z,35.47
2019-02-14T15:33:15.392Z,36.41
2019-02-14T15:35:44.708Z,36.54
2019-02-14T15:38:13.960Z,36.97
2019-02-14T15:40:43.240Z,37.32
2019-02-14T15:43:12.515Z,37.48
2019-02-14T15:45:41.800Z,37.88
2019-02-14T15:48:11.063Z,38.20
2019-02-14T15:50:40.345Z,38.37
2019-02-14T15:53:10.690Z,39.09
2019-02-14T15:55:41.677Z,39.48
2019-02-14T15:58:10.938Z,40.27
2019-02-14T16:00:40.208Z,40.89
2019-02-14T16:03:09.451Z,41.26
2019-02-14T16:05:40.329Z,41.29
2019-02-14T16:08:09.699Z,41.75
2019-02-14T16:10:38.996Z,42.01
2019-02-14T16:13:09.838Z,41.64
2019-02-14T16:15:39.218Z,42.21
2019-02-14T16:18:08.495Z,42.89
2019-02-14T16:20:40.405Z,42.67
2019-02-14T16:23:09.766Z,42.16
2019-02-14T16:25:39.089Z,42.58
2019-02-14T16:28:11.010Z,43.01
2019-02-14T16:30:39.420Z,42.15
2019-02-14T16:33:08.669Z,42.82
2019-02-14T16:35:37.968Z,43.40
2019-02-14T16:38:07.299Z,43.31
2019-02-14T16:40:38.840Z,43.40
2019-02-14T16:43:07.607Z,43.90
2019-02-14T16:45:38.759Z,44.24
2019-02-14T16:48:10.598Z,44.27
2019-02-14T16:50:41.128Z,44.50
2019-02-14T16:53:11.616Z,44.81
2019-02-14T16:55:41.300Z,44.56
2019-02-14T16:58:10.605Z,44.85
2019-02-14T17:00:40.061Z,45.19
2019-02-14T17:03:09.340Z,45.67
2019-02-14T17:05:38.934Z,45.86
2019-02-14T17:08:08.194Z,46.45
2019-02-14T17:10:37.518Z,46.35
2019-02-14T17:13:06.777Z,46.77
2019-02-14T17:15:36.632Z,46.92
2019-02-14T17:18:05.912Z,47.02
2019-02-14T17:20:35.257Z,47.68
2019-02-14T17:23:05.362Z,48.32
2019-02-14T17:25:34.655Z,48.24
2019-02-14T17:28:03.958Z,48.17
2019-02-14T17:30:33.193Z,48.24
2019-02-14T17:33:02.470Z,48.63
2019-02-14T17:35:31.736Z,48.64
2019-02-14T17:38:01.024Z,48.95
2019-02-14T17:40:30.319Z,49.03
2019-02-14T17:42:59.611Z,49.24
2019-02-14T17:45:28.903Z,50.43
2019-02-14T17:47:58.325Z,51.07
2019-02-14T17:50:27.572Z,50.86
2019-02-14T17:52:56.850Z,50.89
2019-02-14T17:55:26.155Z,51.03
2019-02-14T17:57:55.396Z,51.15
2019-02-14T18:00:24.681Z,51.27
2019-02-14T18:02:54.198Z,51.69
2019-02-14T18:05:23.495Z,52.26
2019-02-14T18:07:52.769Z,52.58
2019-02-14T18:10:22.067Z,52.13
2019-02-14T18:12:51.394Z,51.92
2019-02-14T18:15:20.917Z,51.92
2019-02-14T18:17:50.235Z,52.09
2019-02-14T18:20:19.612Z,52.39
2019-02-14T18:22:49.985Z,52.67
2019-02-14T18:25:19.296Z,52.98
2019-02-14T18:27:48.672Z,53.11
2019-02-14T18:30:17.976Z,54.30
2019-02-14T18:32:47.278Z,54.81
2019-02-14T18:35:16.555Z,54.48
2019-02-14T18:37:45.835Z,54.63
2019-02-14T18:40:15.119Z,54.69
2019-02-14T18:42:46.052Z,55.01
2019-02-14T18:45:15.450Z,55.28
2019-02-14T18:47:46.783Z,55.15
2019-02-14T18:50:18.410Z,55.17
2019-02-14T18:52:48.178Z,55.23
2019-02-14T18:55:18.391Z,55.48
2019-02-14T18:57:47.829Z,55.74
2019-02-14T19:00:17.199Z,55.49
2019-02-14T19:02:46.481Z,55.92
2019-02-14T19:05:17.591Z,56.30
2019-02-14T19:07:46.890Z,56.33
2019-02-14T19:10:16.209Z,56.18
2019-02-14T19:12:47.096Z,55.96
2019-02-14T19:15:16.350Z,56.14
2019-02-14T19:17:45.657Z,56.46
2019-02-14T19:20:14.924Z,56.53
2019-02-14T19:22:44.221Z,56.74
2019-02-14T19:25:13.928Z,56.94
2019-02-14T19:27:43.349Z,56.75
2019-02-14T19:30:16.895Z,56.97
2019-02-14T19:32:46.171Z,57.36
2019-02-14T19:35:22.826Z,57.59
2019-02-14T19:37:46.508Z,58.11
2019-02-14T19:40:15.803Z,58.36
2019-02-14T19:42:45.338Z,58.91
2019-02-14T19:45:14.716Z,59.23
2019-02-14T19:47:44.036Z,59.43
2019-02-14T19:50:13.561Z,59.74
2019-02-14T19:52:42.832Z,59.81
2019-02-14T19:55:12.324Z,59.37
2019-02-14T19:57:41.585Z,58.94
2019-02-14T20:00:12.709Z,58.86
2019-02-14T20:02:45.304Z,59.18
2019-02-14T20:05:14.627Z,60.04
2019-02-14T20:07:43.973Z,60.28
2019-02-14T20:10:13.344Z,60.16
2019-02-14T20:12:42.754Z,60.49
2019-02-14T20:15:13.941Z,60.67
2019-02-14T20:17:43.272Z,60.64
2019-02-14T20:20:12.726Z,60.63
2019-02-14T20:22:43.414Z,59.87
2019-02-14T20:25:13.976Z,60.64
2019-02-14T20:27:43.411Z,61.12
2019-02-14T20:30:12.749Z,60.94
2019-02-14T20:32:42.152Z,61.34
2019-02-14T20:35:11.844Z,61.14
2019-02-14T20:37:41.095Z,60.75
2019-02-14T20:40:10.683Z,60.50
2019-02-14T20:42:40.080Z,61.14
2019-02-14T20:45:10.736Z,60.93
2019-02-14T20:47:40.047Z,60.89
2019-02-14T20:50:11.168Z,61.46
2019-02-14T20:52:42.056Z,61.58
2019-02-14T20:55:13.159Z,61.72
2019-02-14T20:57:42.536Z,61.74
2019-02-14T21:00:22.319Z,61.79
2019-02-14T21:02:51.653Z,62.01
2019-02-14T21:05:21.305Z,62.11
2019-02-14T21:07:51.091Z,62.73
2019-02-14T21:10:21.853Z,62.29
2019-02-14T21:12:51.170Z,62.79
2019-02-14T21:15:20.448Z,63.13
2019-02-14T21:17:49.794Z,62.75
2019-02-14T21:20:19.354Z,63.16
2019-02-14T21:22:48.738Z,63.77
2019-02-14T21:25:22.594Z,63.81
2019-02-14T21:27:49.073Z,63.81
2019-02-14T21:30:19.226Z,63.70
2019-02-14T21:32:50.162Z,63.27
2019-02-14T21:35:19.441Z,63.50
2019-02-14T21:37:49.195Z,63.75
2019-02-14T21:40:18.929Z,64.15
2019-02-14T21:42:48.333Z,63.77
2019-02-14T21:45:18.330Z,64.17
2019-02-14T21:47:48.047Z,64.09
2019-02-14T21:50:18.819Z,63.79
2019-02-14T21:52:48.358Z,63.82
2019-02-14T21:55:17.785Z,64.07
2019-02-14T21:57:47.193Z,63.77
2019-02-14T22:00:18.523Z,63.59
2019-02-14T22:02:48.810Z,63.37
2019-02-14T22:05:24.605Z,63.69
2019-02-14T22:07:49.924Z,63.79
2019-02-14T22:10:19.511Z,63.33
2019-02-14T22:12:48.827Z,64.07
2019-02-14T22:15:18.205Z,64.09
2019-02-14T22:17:48.150Z,64.41
2019-02-14T22:20:17.450Z,64.43
2019-02-14T22:22:46.712Z,64.78
2019-02-14T22:25:15.970Z,64.55
2019-02-14T22:27:46.490Z,64.89
2019-02-14T22:30:16.238Z,65.30
2019-02-14T22:32:46.005Z,65.24
2019-02-14T22:35:15.376Z,65.49
2019-02-14T22:37:44.760Z,65.77
2019-02-14T22:40:14.039Z,65.62
2019-02-14T22:42:47.186Z,65.94
2019-02-14T22:45:14.605Z,66.06
2019-02-14T22:47:45.254Z,65.69
2019-02-14T22:50:14.938Z,65.61
2019-02-14T22:52:45.270Z,65.36
2019-02-14T22:55:14.719Z,65.96
2019-02-14T22:57:43.996Z,65.98
2019-02-14T23:00:29.960Z,66.08
2019-02-14T23:02:59.251Z,66.24
2019-02-14T23:05:28.714Z,66.36
2019-02-14T23:07:57.973Z,66.21
2019-02-14T23:10:27.636Z,65.87
2019-02-14T23:12:57.101Z,66.06
2019-02-14T23:15:26.387Z,66.91
2019-02-14T23:17:55.755Z,66.72
2019-02-14T23:20:25.053Z,66.59
2019-02-14T23:22:54.298Z,66.13
2019-02-14T23:25:23.578Z,66.32
2019-02-14T23:27:52.819Z,66.41
2019-02-14T23:30:22.121Z,66.54
2019-02-14T23:32:51.368Z,66.32
2019-02-14T23:35:20.646Z,66.25
2019-02-14T23:37:49.908Z,66.48
2019-02-14T23:40:19.195Z,66.09
2019-02-14T23:42:48.448Z,66.61
2019-02-14T23:45:17.724Z,66.84
2019-02-14T23:47:46.988Z,67.33
2019-02-14T23:50:16.269Z,67.42
2019-02-14T23:52:45.520Z,67.80
2019-02-14T23:55:14.797Z,67.42
2019-02-14T23:57:44.041Z,67.51
